Time;durP1;ratioP1;P1;durP2;ratioP2;P2;SDS_P1;SDS_P2;PMS_P1;PMS_P2;Temp;Humidity;BMP_temperature;BMP_pressure;BME280_temperature;BME280_humidity;BME280_pressure;Samples;Min_cycle;Max_cycle;Signal;HPM_P1;HPM_P2
2023/03/07 00:01:26;;;;;;;0.65;0.50;;;;;;;8.73;70.52;101036.72;5044724;28;20049;-71
2023/03/07 00:04:03;;;;;;;1.20;0.60;;;;;;;8.59;71.15;101039.59;5046515;28;20049;-72
2023/03/07 00:06:31;;;;;;;0.28;0.20;;;;;;;8.49;72.24;101042.59;5048199;28;20047;-72
2023/03/07 00:09:02;;;;;;;1.23;0.40;;;;;;;8.45;73.38;101040.69;5046400;28;21148;-71
2023/03/07 00:11:31;;;;;;;0.10;0.10;;;;;;;8.43;73.16;101052.66;5041639;28;20076;-72
2023/03/07 00:13:59;;;;;;;0.30;0.20;;;;;;;8.40;72.96;101055.09;5045850;28;20056;-72
2023/03/07 00:16:28;;;;;;;0.10;0.10;;;;;;;8.39;73.38;101054.19;5049870;28;20053;-72
2023/03/07 00:18:56;;;;;;;0.90;0.40;;;;;;;8.39;74.25;101045.56;5052046;28;20041;-73
2023/03/07 00:21:30;;;;;;;3.70;0.60;;;;;;;8.38;75.41;101039.53;5042243;28;20050;-73
2023/03/07 00:23:58;;;;;;;1.38;0.70;;;;;;;8.37;76.72;101031.72;5048298;28;20060;-73
2023/03/07 00:26:27;;;;;;;1.10;0.80;;;;;;;8.33;77.36;101029.84;5041385;28;20104;-73
2023/03/07 00:28:56;;;;;;;0.60;0.32;;;;;;;8.31;77.81;101028.88;5051903;28;20048;-73
2023/03/07 00:31:25;;;;;;;0.43;0.22;;;;;;;8.32;78.01;101023.81;5049461;28;20048;-73
2023/03/07 00:33:54;;;;;;;0.35;0.30;;;;;;;8.41;80.20;101020.78;5051443;28;20075;-75
2023/03/07 00:36:23;;;;;;;0.60;0.28;;;;;;;8.51;80.30;101024.63;5035027;28;20057;-73
2023/03/07 00:38:54;;;;;;;0.30;0.30;;;;;;;8.62;77.80;101022.50;5046775;28;20064;-77
2023/03/07 00:41:24;;;;;;;1.52;0.77;;;;;;;8.73;78.54;101016.09;5050851;28;20498;-73
2023/03/07 00:43:52;;;;;;;1.20;0.45;;;;;;;8.84;79.02;101019.94;5046835;28;20050;-73
2023/03/07 00:46:22;;;;;;;0.70;0.38;;;;;;;8.87;77.01;101019.22;5046437;28;20049;-75
2023/03/07 00:48:51;;;;;;;0.43;0.30;;;;;;;8.87;76.27;101020.09;5044708;28;20053;-74
2023/03/07 00:51:22;;;;;;;0.30;0.25;;;;;;;8.87;73.51;101014.06;5053522;28;20060;-74
2023/03/07 00:53:52;;;;;;;0.60;0.40;;;;;;;8.86;73.32;101018.31;5047389;28;20105;-73
2023/03/07 00:56:23;;;;;;;1.08;0.38;;;;;;;8.88;75.53;101024.44;5047224;28;20049;-73
2023/03/07 00:58:52;;;;;;;1.55;0.73;;;;;;;8.89;74.12;101022.75;5048483;28;20045;-72
2023/03/07 01:01:23;;;;;;;2.75;0.60;;;;;;;8.88;73.18;101023.56;5045922;28;20628;-74
2023/03/07 01:03:53;;;;;;;1.75;0.60;;;;;;;8.86;72.89;101017.44;5049077;28;20045;-74
2023/03/07 01:06:23;;;;;;;1.02;0.50;;;;;;;8.87;74.74;101017.53;5046771;28;20055;-74
2023/03/07 01:08:54;;;;;;;1.63;0.63;;;;;;;8.81;73.60;101007.81;5052801;28;20099;-73
2023/03/07 01:11:23;;;;;;;1.27;0.60;;;;;;;8.82;74.57;101021.63;5049003;28;20738;-74
2023/03/07 01:13:51;;;;;;;0.80;0.52;;;;;;;8.76;73.01;101018.78;5040421;28;20060;-73
2023/03/07 01:16:21;;;;;;;0.57;0.47;;;;;;;8.73;72.71;101016.09;5039627;28;20060;-73
2023/03/07 01:18:51;;;;;;;1.00;0.40;;;;;;;8.66;71.46;101019.19;5044602;28;20048;-73
2023/03/07 01:21:21;;;;;;;1.42;0.57;;;;;;;8.58;72.30;101017.19;5041813;28;20050;-75
2023/03/07 01:23:50;;;;;;;0.38;0.20;;;;;;;8.51;72.27;101010.00;5037765;27;20052;-73
2023/03/07 01:26:22;;;;;;;0.52;0.40;;;;;;;8.46;73.03;101016.69;5050548;28;20048;-73
2023/03/07 01:28:52;;;;;;;2.33;0.40;;;;;;;8.40;73.97;101011.25;5047918;28;20434;-75
2023/03/07 01:31:21;;;;;;;1.02;0.50;;;;;;;8.35;73.56;101012.75;5049409;28;20049;-73
2023/03/07 01:33:50;;;;;;;1.85;0.38;;;;;;;8.29;73.69;101021.09;5040210;28;20064;-75
2023/03/07 01:36:20;;;;;;;0.93;0.57;;;;;;;8.23;72.76;101017.38;5050279;28;20052;-73
2023/03/07 01:38:49;;;;;;;0.75;0.38;;;;;;;8.17;73.03;101018.84;5047857;28;20045;-73
2023/03/07 01:41:19;;;;;;;0.38;0.30;;;;;;;8.11;72.88;101016.03;5045124;28;20080;-75
2023/03/07 01:43:48;;;;;;;0.28;0.28;;;;;;;8.04;73.12;101016.59;5040762;28;20534;-73
2023/03/07 01:46:34;;;;;;;1.02;0.35;;;;;;;7.99;73.48;101018.06;5047747;28;20053;-72
2023/03/07 01:49:08;;;;;;;0.60;0.30;;;;;;;7.93;73.24;101025.53;5044481;28;20037;-71
2023/03/07 01:51:40;;;;;;;0.43;0.40;;;;;;;7.85;73.80;101024.28;5048031;28;20119;-73
2023/03/07 01:54:11;;;;;;;0.65;0.43;;;;;;;7.78;73.62;101022.25;5049675;28;20059;-73
2023/03/07 01:56:43;;;;;;;1.27;0.50;;;;;;;7.69;74.65;101023.59;5047148;28;20055;-74
2023/03/07 01:59:12;;;;;;;1.75;0.52;;;;;;;7.63;75.75;101015.63;5046661;28;20037;-74
2023/03/07 02:01:42;;;;;;;0.93;0.30;;;;;;;7.58;75.65;101019.66;5047969;28;20052;-74
2023/03/07 02:04:16;;;;;;;1.48;0.45;;;;;;;7.51;76.19;101009.88;5041958;28;20060;-72
2023/03/07 02:06:44;;;;;;;1.20;0.30;;;;;;;7.41;76.65;101024.03;5041001;28;20513;-72
2023/03/07 02:09:17;;;;;;;1.20;0.80;;;;;;;7.28;77.12;101025.16;5046991;28;20053;-74
2023/03/07 02:11:50;;;;;;;1.55;0.70;;;;;;;7.21;76.89;101033.38;5045958;28;20042;-73
2023/03/07 02:14:18;;;;;;;4.15;0.70;;;;;;;7.12;77.12;101036.44;5043672;28;20525;-74
2023/03/07 02:16:47;;;;;;;0.63;0.20;;;;;;;7.06;79.19;101038.69;5049148;28;20502;-75
2023/03/07 02:19:38;;;;;;;1.17;0.50;;;;;;;6.99;79.80;101046.06;5044847;28;20053;-74
2023/03/07 02:22:11;;;;;;;3.40;0.63;;;;;;;6.90;79.48;101046.47;5054254;28;20049;-75
2023/03/07 02:24:48;;;;;;;1.58;0.70;;;;;;;6.86;80.11;101045.44;5048768;28;20059;-73
2023/03/07 02:27:19;;;;;;;1.17;0.60;;;;;;;6.85;80.38;101043.69;5048152;28;20056;-73
2023/03/07 02:29:47;;;;;;;2.17;1.15;;;;;;;6.83;80.49;101052.13;5048928;28;20053;-75
2023/03/07 02:32:16;;;;;;;1.08;0.43;;;;;;;6.79;80.38;101047.66;5056814;28;20115;-75
2023/03/07 02:34:44;;;;;;;1.90;0.77;;;;;;;6.76;81.25;101048.38;5049024;28;20095;-75
2023/03/07 02:37:17;;;;;;;2.58;0.52;;;;;;;6.65;81.88;101050.41;5050386;28;20966;-72
2023/03/07 02:39:47;;;;;;;0.98;0.45;;;;;;;6.60;83.22;101059.59;5052521;28;20625;-72
2023/03/07 02:42:20;;;;;;;0.45;0.28;;;;;;;6.55;82.58;101058.47;5048945;28;20126;-73
2023/03/07 02:44:55;;;;;;;1.75;0.30;;;;;;;6.50;83.08;101059.91;5046564;28;20049;-73
2023/03/07 02:47:24;;;;;;;3.20;0.55;;;;;;;6.44;83.60;101063.06;5050959;28;20060;-73
2023/03/07 02:49:53;;;;;;;2.03;0.50;;;;;;;6.40;83.61;101063.72;5043759;28;20589;-73
2023/03/07 02:52:22;;;;;;;2.58;0.40;;;;;;;6.36;83.36;101068.63;5052064;28;20044;-74
2023/03/07 02:54:51;;;;;;;1.38;0.30;;;;;;;6.33;82.84;101069.34;5053236;28;20057;-72
2023/03/07 02:57:21;;;;;;;0.60;0.40;;;;;;;6.27;83.48;101067.31;5045001;28;20043;-74
2023/03/07 02:59:50;;;;;;;2.50;0.82;;;;;;;6.26;84.60;101072.41;5047938;28;20210;-72
2023/03/07 03:02:18;;;;;;;0.35;0.30;;;;;;;6.21;84.93;101076.44;5047727;28;20098;-74
2023/03/07 03:04:47;;;;;;;0.75;0.47;;;;;;;6.16;85.48;101080.41;5043225;28;20053;-73
2023/03/07 03:07:16;;;;;;;1.05;0.47;;;;;;;6.14;85.00;101082.03;5053317;28;20071;-74
2023/03/07 03:09:44;;;;;;;2.42;0.65;;;;;;;6.12;85.18;101081.09;5044345;28;20049;-73
2023/03/07 03:12:13;;;;;;;0.90;0.32;;;;;;;6.04;86.00;101068.69;5051316;28;20048;-73
2023/03/07 03:14:43;;;;;;;1.35;0.57;;;;;;;6.07;85.51;101080.84;5050790;28;20045;-73
2023/03/07 03:17:12;;;;;;;2.38;0.68;;;;;;;6.03;86.91;101074.66;5042766;28;20040;-72
2023/03/07 03:19:41;;;;;;;1.67;1.17;;;;;;;6.03;86.40;101082.34;5049108;28;20052;-72
2023/03/07 03:22:09;;;;;;;4.40;0.80;;;;;;;6.00;87.68;101071.03;5048829;28;20506;-74
2023/03/07 03:24:40;;;;;;;1.20;0.50;;;;;;;5.97;89.29;101076.00;5042728;28;20680;-74
2023/03/07 03:27:09;;;;;;;1.25;0.50;;;;;;;5.94;89.85;101065.56;5049430;28;20469;-73
2023/03/07 03:29:37;;;;;;;2.60;0.68;;;;;;;5.96;90.28;101066.56;5044624;28;20045;-73
2023/03/07 03:32:08;;;;;;;0.95;0.50;;;;;;;5.97;89.96;101073.44;5053707;28;20136;-74
2023/03/07 03:34:37;;;;;;;0.77;0.40;;;;;;;5.96;90.16;101069.13;5051767;28;20053;-73
2023/03/07 03:37:06;;;;;;;2.55;0.57;;;;;;;5.94;90.39;101074.16;5050847;28;20044;-75
2023/03/07 03:39:35;;;;;;;0.65;0.35;;;;;;;5.91;90.88;101076.53;5042705;28;20048;-74
2023/03/07 03:42:05;;;;;;;1.75;0.45;;;;;;;5.90;92.52;101073.88;5051236;28;20140;-74
2023/03/07 03:44:34;;;;;;;0.80;0.73;;;;;;;5.86;93.21;101068.59;5052877;28;20076;-75
2023/03/07 03:47:03;;;;;;;1.50;0.80;;;;;;;5.84;92.96;101087.25;5048712;28;20549;-76
2023/03/07 03:49:33;;;;;;;1.15;0.80;;;;;;;5.84;93.43;101084.69;5041892;28;20053;-72
2023/03/07 03:52:01;;;;;;;1.40;0.80;;;;;;;5.88;93.12;101091.78;5040870;28;20041;-72
2023/03/07 03:54:30;;;;;;;1.88;0.60;;;;;;;5.86;92.95;101093.38;5049130;28;20057;-74
2023/03/07 03:56:58;;;;;;;3.17;0.85;;;;;;;5.84;93.15;101087.25;5046747;28;20106;-74
2023/03/07 03:59:27;;;;;;;2.20;0.90;;;;;;;5.84;93.97;101090.75;5051502;28;20048;-75
2023/03/07 04:02:02;;;;;;;1.38;0.73;;;;;;;5.84;93.66;101082.13;5052946;28;20044;-74
2023/03/07 04:04:33;;;;;;;1.00;0.70;;;;;;;5.89;94.05;101093.56;5053750;28;20110;-76
2023/03/07 04:07:01;;;;;;;1.17;0.75;;;;;;;5.90;93.86;101094.44;5047651;28;20533;-76
2023/03/07 04:09:32;;;;;;;1.65;0.60;;;;;;;5.91;93.83;101085.91;5047341;28;20552;-76
2023/03/07 04:12:00;;;;;;;2.53;0.90;;;;;;;5.92;94.06;101087.69;5048280;28;20053;-77
2023/03/07 04:14:29;;;;;;;1.60;1.00;;;;;;;5.92;94.36;101083.44;5043030;28;20619;-76
2023/03/07 04:17:06;;;;;;;1.48;1.00;;;;;;;5.92;94.75;101082.56;5048006;28;20041;-76
2023/03/07 04:19:37;;;;;;;0.80;0.70;;;;;;;5.92;94.46;101087.69;5048884;28;20113;-75
2023/03/07 04:22:05;;;;;;;0.95;0.63;;;;;;;5.88;94.24;101084.06;5049101;28;20047;-75
2023/03/07 04:24:46;;;;;;;0.30;0.20;;;;;;;5.84;96.13;101089.84;5046566;28;20053;-73
2023/03/07 04:27:15;;;;;;;1.30;0.30;;;;;;;5.78;96.66;101089.53;5047748;28;20136;-73
2023/03/07 04:29:44;;;;;;;0.13;0.10;;;;;;;5.72;97.27;101084.03;5050416;28;20055;-73
2023/03/07 04:32:12;;;;;;;1.42;0.40;;;;;;;5.64;97.77;101087.09;5044669;28;20057;-73
2023/03/07 04:34:42;;;;;;;1.33;0.40;;;;;;;5.62;97.77;101083.53;5042757;28;20048;-73
2023/03/07 04:37:11;;;;;;;1.17;0.65;;;;;;;5.62;97.51;101082.66;5045913;28;20057;-73
2023/03/07 04:39:39;;;;;;;0.20;0.20;;;;;;;5.62;97.14;101083.53;5047036;28;20117;-73
2023/03/07 04:42:08;;;;;;;1.23;0.60;;;;;;;5.61;97.00;101092.06;5049616;28;20075;-73
2023/03/07 04:44:37;;;;;;;0.47;0.30;;;;;;;5.60;96.79;101095.41;5046703;28;20056;-73
2023/03/07 04:47:05;;;;;;;0.22;0.20;;;;;;;5.56;96.47;101088.34;5051763;28;20458;-73
2023/03/07 04:49:34;;;;;;;0.22;0.20;;;;;;;5.56;98.90;101097.72;5054336;28;20498;-73
2023/03/07 04:52:04;;;;;;;3.92;2.05;;;;;;;5.57;98.77;101095.25;5047262;28;20049;-73
2023/03/07 04:54:33;;;;;;;0.68;0.30;;;;;;;5.60;100.00;101095.41;5053864;28;20483;-71
2023/03/07 04:57:01;;;;;;;47.50;18.55;;;;;;;5.61;100.00;101091.16;5043322;28;20649;-73
2023/03/07 04:59:30;;;;;;;3.03;1.42;;;;;;;5.61;100.00;101097.19;5040741;28;20049;-74
2023/03/07 05:01:58;;;;;;;0.50;0.30;;;;;;;5.61;100.00;101097.19;5049437;28;20052;-76
2023/03/07 05:04:27;;;;;;;0.75;0.32;;;;;;;5.62;98.88;101093.81;5047580;28;20540;-75
2023/03/07 05:06:56;;;;;;;2.75;0.30;;;;;;;5.61;97.37;101086.94;5049302;28;20037;-75
2023/03/07 05:09:26;;;;;;;0.40;0.40;;;;;;;5.61;96.87;101091.16;5052178;28;20053;-73
2023/03/07 05:11:55;;;;;;;3.42;0.47;;;;;;;5.60;97.25;101094.53;5050725;28;20049;-75
2023/03/07 05:14:23;;;;;;;0.82;0.47;;;;;;;5.61;100.00;101099.75;5046003;28;20053;-73
2023/03/07 05:16:52;;;;;;;0.85;0.45;;;;;;;5.61;100.00;101096.28;5050363;28;20079;-74
2023/03/07 05:19:20;;;;;;;1.40;0.35;;;;;;;5.58;98.64;101089.31;5052379;28;20054;-73
2023/03/07 05:21:49;;;;;;;2.75;1.65;;;;;;;5.56;97.03;101098.59;5056563;28;20060;-74
2023/03/07 05:24:17;;;;;;;3.78;1.60;;;;;;;5.53;96.20;101108.72;5055241;27;20060;-76
2023/03/07 05:26:48;;;;;;;4.72;1.10;;;;;;;5.53;96.27;101112.97;5052574;28;20053;-75
2023/03/07 05:29:16;;;;;;;2.53;1.33;;;;;;;5.51;97.90;101112.88;5045480;28;20044;-74
2023/03/07 05:31:45;;;;;;;3.72;1.63;;;;;;;5.52;97.61;101106.97;5052260;28;20061;-74
2023/03/07 05:34:14;;;;;;;5.30;1.90;;;;;;;5.54;98.70;101118.16;5049918;28;20049;-74
2023/03/07 05:36:43;;;;;;;13.35;5.45;;;;;;;5.52;96.98;101122.34;5050653;28;20049;-74
2023/03/07 05:39:11;;;;;;;7.60;2.60;;;;;;;5.51;96.63;101120.56;5052697;28;20702;-74
2023/03/07 05:41:40;;;;;;;2.53;1.35;;;;;;;5.49;96.72;101118.72;5052516;28;20702;-74
2023/03/07 05:44:10;;;;;;;3.67;1.60;;;;;;;5.48;97.07;101120.41;5052203;28;20093;-74
2023/03/07 05:46:38;;;;;;;4.88;1.63;;;;;;;5.48;97.21;101124.66;5050832;28;20060;-74
2023/03/07 05:49:07;;;;;;;3.88;2.05;;;;;;;5.48;98.23;101132.38;5047279;28;20041;-78
2023/03/07 05:51:35;;;;;;;3.95;1.70;;;;;;;5.47;97.71;101126.31;5054828;28;20075;-74
2023/03/07 05:54:04;;;;;;;3.97;1.67;;;;;;;5.46;97.67;101122.00;5048376;28;20049;-77
2023/03/07 05:56:33;;;;;;;5.55;1.23;;;;;;;5.47;97.71;101121.19;5048183;28;20124;-77
2023/03/07 05:59:02;;;;;;;3.72;1.35;;;;;;;5.48;97.70;101125.53;5052527;28;20521;-75
2023/03/07 06:01:32;;;;;;;5.70;1.88;;;;;;;5.46;97.79;101124.56;5049347;28;20052;-75
2023/03/07 06:04:00;;;;;;;6.90;3.75;;;;;;;5.45;97.79;101127.91;5050536;28;20041;-76
2023/03/07 06:06:29;;;;;;;6.55;1.92;;;;;;;5.38;98.47;101123.25;5032479;28;20049;-74
2023/03/07 06:08:58;;;;;;;4.60;1.83;;;;;;;5.44;98.57;101128.72;5056695;28;20121;-77
2023/03/07 06:11:27;;;;;;;3.63;1.38;;;;;;;5.42;98.74;101126.06;5050993;28;20052;-74
2023/03/07 06:13:55;;;;;;;3.40;1.60;;;;;;;5.43;98.71;101121.84;5048193;28;20254;-80
2023/03/07 06:16:24;;;;;;;4.05;1.60;;;;;;;5.43;98.94;101126.97;5040733;28;20053;-76
2023/03/07 06:18:54;;;;;;;4.75;1.65;;;;;;;5.44;98.68;101123.59;5048362;28;20221;-76
2023/03/07 06:21:22;;;;;;;2.55;1.50;;;;;;;5.42;98.72;101115.81;5053385;28;20514;-76
2023/03/07 06:23:51;;;;;;;2.92;1.60;;;;;;;5.43;98.96;101111.59;5053564;28;20134;-77
2023/03/07 06:26:19;;;;;;;1.85;1.40;;;;;;;5.42;99.06;101107.22;5052109;28;20473;-76
2023/03/07 06:28:49;;;;;;;3.35;1.70;;;;;;;5.42;99.60;101109.78;5048913;28;20053;-75
2023/03/07 06:31:19;;;;;;;3.33;1.63;;;;;;;5.42;98.92;101110.66;5051824;28;20050;-74
2023/03/07 06:33:48;;;;;;;4.82;1.27;;;;;;;5.39;98.79;101105.38;5045804;28;20234;-73
2023/03/07 06:36:19;;;;;;;5.90;1.48;;;;;;;5.40;98.21;101111.38;5059402;28;20545;-73
2023/03/07 06:38:48;;;;;;;4.10;1.85;;;;;;;5.39;98.18;101109.63;5045631;28;20066;-75
2023/03/07 06:41:17;;;;;;;3.63;1.17;;;;;;;5.37;98.18;101103.53;5049019;28;20044;-72
2023/03/07 06:43:45;;;;;;;3.53;1.40;;;;;;;5.35;97.96;101100.88;5047562;28;20057;-75
2023/03/07 06:46:16;;;;;;;3.58;1.40;;;;;;;5.35;98.03;101100.00;5046231;28;20058;-74
2023/03/07 06:48:44;;;;;;;2.92;1.05;;;;;;;5.31;97.89;101098.91;5050005;28;20092;-76
2023/03/07 06:51:13;;;;;;;4.32;2.05;;;;;;;5.31;98.04;101095.47;5050961;28;20045;-75
2023/03/07 06:53:43;;;;;;;2.83;1.42;;;;;;;5.28;98.14;101106.47;5052949;28;20679;-74
2023/03/07 06:56:11;;;;;;;4.95;1.58;;;;;;;5.25;98.57;101106.28;5044206;28;20442;-73
2023/03/07 06:58:40;;;;;;;5.40;1.80;;;;;;;5.19;98.51;101106.81;5049933;28;20045;-74
2023/03/07 07:01:15;;;;;;;3.63;1.27;;;;;;;5.17;99.05;101103.28;5046937;28;20537;-74
2023/03/07 07:03:44;;;;;;;2.28;1.20;;;;;;;5.16;99.31;101110.91;5048008;28;20048;-74
2023/03/07 07:06:13;;;;;;;5.68;1.65;;;;;;;5.13;99.33;101106.50;5048416;28;20048;-74
2023/03/07 07:08:43;;;;;;;6.30;2.92;;;;;;;5.12;99.16;101112.41;5042159;28;20111;-74
2023/03/07 07:11:11;;;;;;;7.20;2.17;;;;;;;5.09;99.52;101112.22;5049575;28;20056;-74
2023/03/07 07:13:40;;;;;;;8.73;3.25;;;;;;;5.04;99.94;101117.09;5044123;28;20049;-74
2023/03/07 07:16:09;;;;;;;2.78;1.60;;;;;;;5.07;100.00;101113.81;5051503;28;20064;-75
2023/03/07 07:18:38;;;;;;;2.95;1.88;;;;;;;5.09;100.00;101119.94;5048705;28;20049;-74
2023/03/07 07:21:06;;;;;;;2.63;1.23;;;;;;;5.06;100.00;101122.28;5049216;28;20714;-75
2023/03/07 07:23:35;;;;;;;2.67;1.45;;;;;;;5.03;100.00;101115.31;5051954;27;20098;-74
2023/03/07 07:26:05;;;;;;;4.85;2.40;;;;;;;5.03;100.00;101119.56;5031027;28;20053;-74
2023/03/07 07:28:34;;;;;;;4.45;1.95;;;;;;;5.06;100.00;101121.41;5033404;28;20103;-74
2023/03/07 07:31:02;;;;;;;2.83;1.60;;;;;;;5.08;100.00;101117.25;5035775;28;20052;-74
2023/03/07 07:33:31;;;;;;;6.53;1.88;;;;;;;5.09;100.00;101117.38;5024774;28;20050;-74
2023/03/07 07:36:00;;;;;;;3.80;2.13;;;;;;;5.11;100.00;101120.91;5035742;28;20092;-74
2023/03/07 07:38:28;;;;;;;3.38;1.95;;;;;;;5.10;100.00;101118.25;5027960;28;20057;-74
2023/03/07 07:40:57;;;;;;;4.30;2.10;;;;;;;5.10;100.00;101120.81;5029815;28;20140;-74
2023/03/07 07:43:27;;;;;;;5.18;2.08;;;;;;;5.11;100.00;101127.69;5031580;28;20491;-75
2023/03/07 07:45:55;;;;;;;6.05;1.88;;;;;;;5.07;100.00;101129.22;5032483;28;20068;-74
2023/03/07 07:48:24;;;;;;;4.43;1.80;;;;;;;5.06;100.00;101122.28;5030821;28;20067;-74
2023/03/07 07:50:52;;;;;;;5.13;1.98;;;;;;;5.08;100.00;101124.97;5033134;28;20060;-74
2023/03/07 07:53:21;;;;;;;3.05;1.70;;;;;;;5.10;100.00;101120.81;5029585;28;20045;-74
2023/03/07 07:55:49;;;;;;;4.93;2.05;;;;;;;5.13;100.00;101121.88;5032626;28;20045;-75
2023/03/07 07:58:18;;;;;;;4.22;2.10;;;;;;;5.14;100.00;101112.50;5024991;28;20053;-75
2023/03/07 08:00:48;;;;;;;2.80;1.40;;;;;;;5.17;100.00;101120.34;5028070;28;20049;-74
2023/03/07 08:03:17;;;;;;;4.25;1.23;;;;;;;5.18;100.00;101117.88;5033684;28;20053;-74
2023/03/07 08:05:47;;;;;;;3.92;1.73;;;;;;;5.19;100.00;101122.22;5027717;28;20594;-74
2023/03/07 08:08:15;;;;;;;2.72;1.63;;;;;;;5.20;100.00;101121.44;5031742;28;20499;-73
2023/03/07 08:10:44;;;;;;;3.58;1.65;;;;;;;5.21;100.00;101114.59;5034059;28;20120;-74
2023/03/07 08:13:14;;;;;;;5.65;2.30;;;;;;;5.22;100.00;101122.41;5024778;28;20068;-74
2023/03/07 08:15:43;;;;;;;3.33;1.60;;;;;;;5.24;100.00;101125.03;5029114;28;20053;-74
2023/03/07 08:18:13;;;;;;;2.20;1.20;;;;;;;5.20;100.00;101129.13;5031589;28;20056;-74
2023/03/07 08:20:41;;;;;;;2.55;1.15;;;;;;;5.21;100.00;101124.88;5032878;28;20049;-75
2023/03/07 08:23:10;;;;;;;2.35;1.55;;;;;;;5.21;100.00;101128.31;5032957;28;20067;-75
2023/03/07 08:25:39;;;;;;;2.60;1.38;;;;;;;5.21;100.00;101130.88;5047545;28;20079;-75
2023/03/07 08:28:07;;;;;;;1.65;1.17;;;;;;;5.17;100.00;101120.34;5044680;28;20049;-74
2023/03/07 08:30:37;;;;;;;4.20;1.23;;;;;;;5.19;100.00;101132.47;5046451;28;20429;-76
2023/03/07 08:33:06;;;;;;;4.38;1.55;;;;;;;5.20;100.00;101129.13;5046179;28;20140;-74
2023/03/07 08:35:36;;;;;;;2.40;1.08;;;;;;;5.16;100.00;101127.16;5052187;28;20048;-75
2023/03/07 08:38:04;;;;;;;3.65;1.30;;;;;;;5.15;100.00;101134.78;5042605;28;20040;-74
2023/03/07 08:40:33;;;;;;;3.78;1.25;;;;;;;5.16;100.00;101132.31;5052592;28;20122;-74
2023/03/07 08:43:02;;;;;;;1.20;0.85;;;;;;;5.19;100.00;101141.84;5049839;28;20056;-74
2023/03/07 08:45:31;;;;;;;1.90;1.08;;;;;;;5.19;100.00;101136.72;5048654;28;20146;-75
2023/03/07 08:47:59;;;;;;;3.45;1.52;;;;;;;5.11;100.00;101128.59;5046843;28;20530;-75
2023/03/07 08:50:29;;;;;;;4.32;1.05;;;;;;;5.13;100.00;101137.28;5048458;28;20049;-76
2023/03/07 08:52:59;;;;;;;2.08;1.00;;;;;;;5.16;100.00;101139.13;5047040;28;20050;-77
2023/03/07 08:55:27;;;;;;;1.95;0.80;;;;;;;5.16;100.00;101131.44;5045761;28;20045;-74
2023/03/07 08:57:56;;;;;;;2.97;1.10;;;;;;;5.16;100.00;101132.31;5048694;28;20049;-74
2023/03/07 09:00:25;;;;;;;2.58;0.90;;;;;;;5.18;100.00;101125.59;5038833;28;20049;-75
2023/03/07 09:02:57;;;;;;;1.77;0.88;;;;;;;5.19;100.00;101135.03;5051304;28;20056;-75
2023/03/07 09:05:25;;;;;;;0.88;0.55;;;;;;;5.18;100.00;101138.41;5053276;28;20049;-74
2023/03/07 09:07:54;;;;;;;2.47;0.90;;;;;;;5.15;100.00;101135.66;5049769;28;20109;-76
2023/03/07 09:10:26;;;;;;;0.90;0.60;;;;;;;5.16;100.00;101127.16;5049748;28;20064;-75
2023/03/07 09:13:01;;;;;;;3.17;0.98;;;;;;;5.19;100.00;101137.59;5051494;28;20509;-75
2023/03/07 09:15:29;;;;;;;1.65;0.98;;;;;;;5.21;100.00;101136.00;5053903;28;20547;-76
2023/03/07 09:17:58;;;;;;;2.08;0.93;;;;;;;5.21;100.00;101132.56;5047429;28;20053;-76
2023/03/07 09:20:26;;;;;;;2.53;1.08;;;;;;;5.20;100.00;101134.25;5045765;28;20053;-76
2023/03/07 09:22:55;;;;;;;2.42;1.00;;;;;;;5.23;100.00;101134.41;5050870;28;20048;-76
2023/03/07 09:25:25;;;;;;;2.80;1.15;;;;;;;5.28;100.00;101146.63;5049453;28;20494;-76
2023/03/07 09:27:54;;;;;;;3.92;1.20;;;;;;;5.23;100.00;101131.84;5043936;28;20098;-75
2023/03/07 09:30:24;;;;;;;2.03;0.93;;;;;;;5.25;100.00;101140.53;5043177;28;20064;-75
2023/03/07 09:32:52;;;;;;;3.03;0.95;;;;;;;5.30;100.00;101145.03;5045966;28;20060;-75
2023/03/07 09:35:21;;;;;;;1.13;0.90;;;;;;;5.32;100.00;101143.44;5044319;28;20052;-76
2023/03/07 09:37:50;;;;;;;1.85;0.80;;;;;;;5.33;100.00;101145.19;5045764;28;20122;-74
2023/03/07 09:40:22;;;;;;;3.00;1.30;;;;;;;5.34;100.00;101145.31;5041723;28;20044;-75
2023/03/07 09:43:02;;;;;;;1.88;1.05;;;;;;;5.35;100.00;101146.19;5050310;28;20047;-75
2023/03/07 09:45:45;;;;;;;1.05;0.50;;;;;;;5.35;100.00;101143.63;5045929;28;20131;-75
2023/03/07 09:48:53;;;;;;;2.65;1.23;;;;;;;5.34;100.00;101136.72;5047377;28;20196;-76
2023/03/07 09:51:26;;;;;;;2.13;0.88;;;;;;;5.34;100.00;101141.84;5049682;28;20041;-76
2023/03/07 09:53:56;;;;;;;;;;;;;;;5.39;100.00;101140.44;5050820;28;20308;-75
2023/03/07 09:56:28;;;;;;;2.22;0.90;;;;;;;5.39;100.00;101143.88;5053871;28;19925;-75
2023/03/07 09:59:05;;;;;;;1.70;0.98;;;;;;;5.40;100.00;101137.94;5036821;28;20049;-75
2023/03/07 10:01:38;;;;;;;2.08;1.23;;;;;;;5.41;100.00;101139.72;5040506;28;20513;-75
2023/03/07 10:04:13;;;;;;;3.45;1.08;;;;;;;5.42;100.00;101132.88;5050617;28;20073;-74
2023/03/07 10:06:43;;;;;;;2.13;0.73;;;;;;;5.43;100.00;101138.13;5052754;28;20041;-74
2023/03/07 10:09:19;;;;;;;2.33;1.10;;;;;;;5.38;100.00;101125.81;5051639;28;20049;-74
2023/03/07 10:12:22;;;;;;;1.23;0.90;;;;;;;5.43;100.00;101126.97;5056000;28;20062;-74
2023/03/07 10:15:20;;;;;;;2.05;0.70;;;;;;;5.42;100.00;101130.31;5047334;28;20053;-74
2023/03/07 10:18:15;;;;;;;1.10;0.68;;;;;;;5.41;100.00;101131.13;5047471;28;20044;-74
2023/03/07 10:20:48;;;;;;;1.08;0.60;;;;;;;5.39;100.00;101119.91;5044620;28;20249;-74
2023/03/07 10:23:34;;;;;;;1.90;1.00;;;;;;;5.41;100.00;101120.88;5051978;28;20067;-76
2023/03/07 10:26:10;;;;;;;1.75;0.93;;;;;;;5.41;100.00;101115.75;5052808;27;20083;-75
2023/03/07 10:28:40;;;;;;;3.33;0.95;;;;;;;5.41;100.00;101115.75;5048743;28;20748;-74
2023/03/07 10:31:33;;;;;;;1.42;0.70;;;;;;;5.39;100.00;101109.63;5048684;28;20083;-74
2023/03/07 10:34:12;;;;;;;1.13;0.77;;;;;;;5.39;100.00;101107.06;5046793;28;20049;-73
2023/03/07 10:36:46;;;;;;;2.05;1.02;;;;;;;5.38;100.00;101112.97;5051004;28;20053;-74
2023/03/07 10:39:25;;;;;;;1.45;0.80;;;;;;;5.38;100.00;101107.84;5041933;28;20045;-73
2023/03/07 10:41:55;;;;;;;1.67;0.65;;;;;;;5.38;100.00;101110.41;5051633;28;20091;-74
2023/03/07 10:44:24;;;;;;;1.52;0.70;;;;;;;5.37;100.00;101099.28;5047424;28;20573;-73
2023/03/07 10:46:58;;;;;;;1.10;0.63;;;;;;;5.36;100.00;101100.09;5050299;28;20052;-74
2023/03/07 10:49:30;;;;;;;1.98;0.40;;;;;;;5.32;100.00;101090.44;5049545;28;20103;-74
2023/03/07 10:52:03;;;;;;;0.50;0.40;;;;;;;5.34;100.00;101095.66;5049682;28;20138;-74
2023/03/07 10:54:33;;;;;;;0.65;0.50;;;;;;;5.33;100.00;101099.00;5051183;28;20063;-74
2023/03/07 10:57:07;;;;;;;1.20;0.50;;;;;;;5.36;100.00;101091.47;5047753;28;20041;-75
2023/03/07 10:59:36;;;;;;;4.20;0.80;;;;;;;5.35;100.00;101087.16;5046255;28;20053;-74
2023/03/07 11:02:30;;;;;;;0.73;0.45;;;;;;;5.33;100.00;101089.63;5048892;28;20106;-75
2023/03/07 11:04:59;;;;;;;0.55;0.55;;;;;;;5.37;100.00;101085.56;5047202;28;20141;-76
2023/03/07 11:07:29;;;;;;;4.13;0.85;;;;;;;5.37;100.00;101076.19;5055733;28;20041;-74
2023/03/07 11:09:59;;;;;;;1.08;0.43;;;;;;;5.41;100.00;101082.38;5052928;28;20048;-75
2023/03/07 11:12:30;;;;;;;0.38;0.38;;;;;;;5.42;100.00;101073.88;5053428;28;20048;-75
2023/03/07 11:15:12;;;;;;;0.52;0.35;;;;;;;5.42;100.00;101071.31;5049947;28;20045;-75
2023/03/07 11:17:44;;;;;;;0.52;0.20;;;;;;;5.44;100.00;101070.59;5046844;28;20044;-76
2023/03/07 11:20:24;;;;;;;0.40;0.30;;;;;;;5.45;100.00;101074.94;5053974;28;20044;-75
2023/03/07 11:23:14;;;;;;;0.35;0.35;;;;;;;5.46;100.00;101070.69;5050320;28;20110;-75
2023/03/07 11:25:43;;;;;;;0.93;0.50;;;;;;;5.47;100.00;101080.13;5057674;27;20107;-75
2023/03/07 11:28:30;;;;;;;0.75;0.43;;;;;;;5.46;100.00;101075.81;5052549;28;20679;-74
2023/03/07 11:31:06;;;;;;;1.13;0.25;;;;;;;5.47;100.00;101072.44;5047486;28;20092;-76
2023/03/07 11:33:49;;;;;;;0.88;0.57;;;;;;;5.47;100.00;101069.88;5036084;28;20074;-74
2023/03/07 11:36:23;;;;;;;0.40;0.30;;;;;;;5.47;100.00;101069.88;5045044;28;20759;-74
2023/03/07 11:39:02;;;;;;;0.50;0.28;;;;;;;5.48;100.00;101074.22;5050638;28;20044;-73
2023/03/07 11:41:32;;;;;;;0.28;0.20;;;;;;;5.49;100.00;101073.41;5045498;28;20140;-74
2023/03/07 11:44:28;;;;;;;5.10;3.05;;;;;;;5.49;100.00;101069.97;5055233;28;20530;-74
2023/03/07 11:47:11;;;;;;;1.50;0.43;;;;;;;5.52;100.00;101076.16;5047802;28;20779;-74